createdAt,value
2024-02-02T00:00:16.774Z,101321.74
2024-02-02T00:03:11.233Z,101326.53
2024-02-02T00:05:24.302Z,101323.28
2024-02-02T00:07:36.511Z,101320.80
2024-02-02T00:09:49.323Z,101327.20
2024-02-02T00:12:01.632Z,101335.00
2024-02-02T00:14:13.718Z,101328.58
2024-02-02T00:16:25.916Z,101333.39
2024-02-02T00:18:38.405Z,101329.33
2024-02-02T00:20:50.549Z,101330.50
2024-02-02T00:23:02.853Z,101327.04
2024-02-02T00:25:14.669Z,101326.34
2024-02-02T00:27:26.908Z,101329.67
2024-02-02T00:29:39.252Z,101332.33
2024-02-02T00:31:51.215Z,101333.98
2024-02-02T00:34:03.264Z,101335.21
2024-02-02T00:36:16.173Z,101341.30
2024-02-02T00:38:28.678Z,101342.66
2024-02-02T00:40:40.442Z,101340.31
2024-02-02T00:42:52.727Z,101338.42
2024-02-02T00:45:05.019Z,101335.57
2024-02-02T00:47:16.716Z,101333.36
2024-02-02T00:49:29.022Z,101333.31
2024-02-02T00:51:41.198Z,101336.48
2024-02-02T00:53:52.840Z,101335.18
2024-02-02T00:56:05.757Z,101334.09
2024-02-02T00:58:17.937Z,101338.90
2024-02-02T01:00:30.200Z,101343.30
2024-02-02T01:02:42.109Z,101349.56
2024-02-02T01:04:54.318Z,101347.68
2024-02-02T01:07:06.306Z,101350.64
2024-02-02T01:09:18.306Z,101355.21
2024-02-02T01:11:30.496Z,101358.77
2024-02-02T01:13:42.583Z,101358.26
2024-02-02T01:15:55.036Z,101365.55
2024-02-02T01:18:09.799Z,101363.64
2024-02-02T01:20:22.053Z,101369.86
2024-02-02T01:22:34.783Z,101372.16
2024-02-02T01:24:46.746Z,101372.97
2024-02-02T01:26:59.220Z,101384.94
2024-02-02T01:29:11.352Z,101387.73
2024-02-02T01:31:23.448Z,101391.18
2024-02-02T01:33:35.324Z,101387.80
2024-02-02T01:35:47.676Z,101391.15
2024-02-02T01:37:59.945Z,101389.42
2024-02-02T01:40:14.733Z,101392.51
2024-02-02T01:42:26.862Z,101396.49
2024-02-02T01:44:39.102Z,101391.73
2024-02-02T01:46:51.842Z,101393.76
2024-02-02T01:49:03.772Z,101393.70
2024-02-02T01:51:15.776Z,101399.50
2024-02-02T01:53:27.993Z,101402.13
2024-02-02T01:55:40.397Z,101402.48
2024-02-02T01:57:52.703Z,101404.30
2024-02-02T02:00:05.972Z,101392.78
2024-02-02T02:02:22.425Z,101385.08
2024-02-02T02:04:35.201Z,101380.39
2024-02-02T02:06:47.426Z,101389.06
2024-02-02T02:09:00.131Z,101393.45
2024-02-02T02:11:12.450Z,101394.52
2024-02-02T02:13:27.694Z,101399.32
2024-02-02T02:15:39.755Z,101402.31
2024-02-02T02:17:53.411Z,101400.06
2024-02-02T02:20:15.045Z,101402.66
2024-02-02T02:22:27.079Z,101406.95
2024-02-02T02:24:39.072Z,101408.13
2024-02-02T02:26:51.220Z,101404.23
2024-02-02T02:29:04.303Z,101406.36
2024-02-02T02:31:18.690Z,101405.46
2024-02-02T02:33:31.216Z,101402.88
2024-02-02T02:35:43.244Z,101406.45
2024-02-02T02:37:55.130Z,101407.36
2024-02-02T02:40:10.204Z,101410.89
2024-02-02T02:42:22.045Z,101411.16
2024-02-02T02:44:33.978Z,101414.71
2024-02-02T02:46:46.488Z,101415.58
2024-02-02T02:48:58.373Z,101414.09
2024-02-02T02:51:10.603Z,101417.11
2024-02-02T02:53:22.784Z,101414.00
2024-02-02T02:55:35.010Z,101413.27
2024-02-02T02:57:46.879Z,101410.27
2024-02-02T02:59:58.795Z,101411.95
2024-02-02T03:02:10.568Z,101416.77
2024-02-02T03:04:22.862Z,101430.20
2024-02-02T03:06:35.158Z,101424.67
2024-02-02T03:08:47.079Z,101421.59
2024-02-02T03:11:02.239Z,101425.01
2024-02-02T03:13:14.525Z,101422.04
2024-02-02T03:15:26.648Z,101422.28
2024-02-02T03:17:38.746Z,101427.06
2024-02-02T03:19:51.030Z,101432.05
2024-02-02T03:22:03.369Z,101437.21
2024-02-02T03:24:15.131Z,101433.96
2024-02-02T03:26:27.213Z,101434.81
2024-02-02T03:28:39.100Z,101438.01
2024-02-02T03:30:50.999Z,101437.09
2024-02-02T03:33:02.992Z,101435.16
2024-02-02T03:35:15.614Z,101440.20
2024-02-02T03:37:27.800Z,101443.52
2024-02-02T03:39:40.021Z,101449.07
2024-02-02T03:41:51.905Z,101457.30
2024-02-02T03:44:03.778Z,101461.05
2024-02-02T03:46:16.081Z,101463.05
2024-02-02T03:48:28.223Z,101467.74
2024-02-02T03:50:39.977Z,101464.00
2024-02-02T03:52:52.179Z,101466.64
2024-02-02T03:55:04.375Z,101467.58
2024-02-02T03:57:16.505Z,101463.48
2024-02-02T03:59:29.285Z,101464.29
2024-02-02T04:01:41.590Z,101467.92
2024-02-02T04:03:53.703Z,101469.08
2024-02-02T04:06:06.413Z,101465.81
2024-02-02T04:08:18.594Z,101468.64
2024-02-02T04:10:31.101Z,101468.79
2024-02-02T04:12:43.810Z,101476.10
2024-02-02T04:14:57.361Z,101469.55
2024-02-02T04:17:09.546Z,101462.81
2024-02-02T04:19:22.991Z,101465.22
2024-02-02T04:21:34.885Z,101477.77
2024-02-02T04:23:46.659Z,101474.60
2024-02-02T04:25:59.528Z,101484.61
2024-02-02T04:28:11.979Z,101486.23
2024-02-02T04:30:24.354Z,101476.94
2024-02-02T04:32:36.498Z,101474.66
2024-02-02T04:34:48.408Z,101469.84
2024-02-02T04:37:00.481Z,101474.48
2024-02-02T04:39:12.652Z,101472.63
2024-02-02T04:41:24.858Z,101471.50
2024-02-02T04:43:37.015Z,101474.28
2024-02-02T04:45:49.981Z,101475.20
2024-02-02T04:48:02.851Z,101474.51
2024-02-02T04:50:15.584Z,101480.37
2024-02-02T04:52:27.222Z,101482.58
2024-02-02T04:54:39.733Z,101482.73
2024-02-02T04:56:52.428Z,101486.13
2024-02-02T04:59:04.616Z,101488.71
2024-02-02T05:01:16.296Z,101500.53
2024-02-02T05:03:29.158Z,101500.45
2024-02-02T05:05:41.312Z,101495.23
2024-02-02T05:07:53.734Z,101492.28
2024-02-02T05:10:07.280Z,101489.02
2024-02-02T05:12:19.440Z,101497.69
2024-02-02T05:14:31.557Z,101500.27
2024-02-02T05:16:44.148Z,101496.80
2024-02-02T05:18:56.710Z,101493.67
2024-02-02T05:21:09.098Z,101492.30
2024-02-02T05:23:21.260Z,101496.41
2024-02-02T05:25:32.910Z,101501.74
2024-02-02T05:27:45.105Z,101500.03
2024-02-02T05:29:57.165Z,101495.84
2024-02-02T05:32:08.932Z,101499.26
2024-02-02T05:34:21.219Z,101499.68
2024-02-02T05:36:33.696Z,101496.75
2024-02-02T05:38:45.758Z,101492.86
2024-02-02T05:40:58.038Z,101486.84
2024-02-02T05:43:12.196Z,101481.58
2024-02-02T05:45:24.026Z,101488.30
2024-02-02T05:47:36.085Z,101490.52
2024-02-02T05:49:48.365Z,101497.08
2024-02-02T05:52:01.989Z,101497.48
2024-02-02T05:54:14.339Z,101497.81
2024-02-02T05:56:26.211Z,101499.64
2024-02-02T05:58:37.628Z,101496.60
2024-02-02T06:00:49.389Z,101497.88
2024-02-02T06:03:01.508Z,101496.42
2024-02-02T06:05:14.334Z,101493.63
2024-02-02T06:07:26.083Z,101496.73
2024-02-02T06:09:38.197Z,101500.89
2024-02-02T06:11:50.212Z,101507.05
2024-02-02T06:14:02.058Z,101503.73
2024-02-02T06:16:14.264Z,101504.64
2024-02-02T06:18:26.595Z,101505.96
2024-02-02T06:20:38.656Z,101506.98
2024-02-02T06:22:50.344Z,101510.21
2024-02-02T06:25:02.952Z,101511.36
2024-02-02T06:27:14.773Z,101512.75
2024-02-02T06:29:29.509Z,101513.41
2024-02-02T06:31:42.235Z,101511.68
2024-02-02T06:33:54.292Z,101510.56
2024-02-02T06:36:06.868Z,101510.54
2024-02-02T06:38:18.913Z,101511.58
2024-02-02T06:40:30.810Z,101510.60
2024-02-02T06:42:42.822Z,101515.25
2024-02-02T06:44:56.621Z,101517.23
2024-02-02T06:47:08.784Z,101514.08
2024-02-02T06:49:20.979Z,101522.70
2024-02-02T06:51:33.383Z,101520.67
2024-02-02T06:53:45.948Z,101521.83
2024-02-02T06:55:58.173Z,101528.69
2024-02-02T06:58:41.483Z,101526.33
2024-02-02T07:00:53.565Z,101521.20
2024-02-02T07:03:07.480Z,101522.52
2024-02-02T07:05:19.667Z,101526.15
2024-02-02T07:07:32.116Z,101530.77
2024-02-02T07:09:57.716Z,101532.52
2024-02-02T07:12:13.941Z,101531.73
2024-02-02T07:14:43.840Z,101533.40
2024-02-02T07:16:55.678Z,101531.45
2024-02-02T07:19:26.149Z,101528.56
2024-02-02T07:21:38.755Z,101529.84
2024-02-02T07:23:51.486Z,101532.23
2024-02-02T07:26:14.839Z,101523.31
2024-02-02T07:28:37.434Z,101522.59
2024-02-02T07:30:56.699Z,101520.55
2024-02-02T07:33:29.024Z,101515.61
2024-02-02T07:35:41.523Z,101515.95
2024-02-02T07:37:54.143Z,101516.66
2024-02-02T07:40:31.772Z,101513.88
2024-02-02T07:42:48.112Z,101512.58
2024-02-02T07:45:00.706Z,101513.97
2024-02-02T07:47:12.745Z,101505.21
2024-02-02T07:49:25.017Z,101502.94
2024-02-02T07:51:39.150Z,101504.38
2024-02-02T07:53:51.797Z,101500.82
2024-02-02T07:56:04.429Z,101498.05
2024-02-02T07:58:19.278Z,101501.98
2024-02-02T08:00:31.191Z,101501.08
2024-02-02T08:02:43.296Z,101497.76
2024-02-02T08:04:56.238Z,101499.40
2024-02-02T08:07:08.105Z,101491.64
2024-02-02T08:09:19.966Z,101491.79
2024-02-02T08:11:37.025Z,101487.19
2024-02-02T08:13:49.473Z,101490.69
2024-02-02T08:16:01.672Z,101488.59
2024-02-02T08:18:14.238Z,101490.36
2024-02-02T08:20:26.379Z,101487.54
2024-02-02T08:22:38.481Z,101485.57
2024-02-02T08:24:50.799Z,101479.59
2024-02-02T08:27:02.893Z,101477.91
2024-02-02T08:29:18.150Z,101477.98
2024-02-02T08:31:30.551Z,101478.26
2024-02-02T08:33:44.571Z,101482.29
2024-02-02T08:35:56.930Z,101483.41
2024-02-02T08:38:13.213Z,101484.93
2024-02-02T08:40:40.339Z,101484.27
2024-02-02T08:42:53.097Z,101482.36
2024-02-02T08:45:13.377Z,101479.98
2024-02-02T08:47:30.616Z,101477.02
2024-02-02T08:49:54.835Z,101472.36
2024-02-02T08:52:12.330Z,101475.64
2024-02-02T08:54:35.460Z,101473.42
2024-02-02T08:57:23.380Z,101475.02
2024-02-02T08:59:40.836Z,101476.95
2024-02-02T09:01:52.984Z,101475.69
2024-02-02T09:04:06.753Z,101470.65
2024-02-02T09:06:24.834Z,101468.44
2024-02-02T09:08:42.031Z,101468.39
2024-02-02T09:11:00.407Z,101467.02
2024-02-02T09:13:23.082Z,101468.07
2024-02-02T09:15:36.138Z,101477.73
2024-02-02T09:17:51.743Z,101480.56
2024-02-02T09:20:04.551Z,101471.69
2024-02-02T09:22:18.253Z,101462.73
2024-02-02T09:24:45.050Z,101466.84
2024-02-02T09:26:59.415Z,101464.84
2024-02-02T09:29:12.689Z,101457.05
2024-02-02T09:31:26.896Z,101461.94
2024-02-02T09:33:47.154Z,101461.60
2024-02-02T09:36:01.155Z,101456.61
2024-02-02T09:38:14.328Z,101456.75
2024-02-02T09:41:01.992Z,101455.36
2024-02-02T09:43:32.426Z,101447.58
2024-02-02T09:46:15.466Z,101447.98
2024-02-02T09:49:10.416Z,101435.33
2024-02-02T09:51:38.176Z,101432.08
2024-02-02T09:54:18.339Z,101428.40
2024-02-02T09:57:01.382Z,101419.86
2024-02-02T09:59:26.921Z,101412.66
2024-02-02T10:02:00.462Z,101409.40
2024-02-02T10:04:34.584Z,101407.65
2024-02-02T10:07:12.955Z,101409.15
2024-02-02T10:09:24.969Z,101407.73
2024-02-02T10:11:51.418Z,101402.86
2024-02-02T10:14:31.780Z,101397.36
2024-02-02T10:16:55.853Z,101397.23
2024-02-02T10:19:46.051Z,101405.83
2024-02-02T10:22:28.556Z,101402.27
2024-02-02T10:25:04.379Z,101402.92
2024-02-02T10:27:27.210Z,101392.73
2024-02-02T10:30:07.513Z,101397.67
2024-02-02T10:32:35.908Z,101396.23
2024-02-02T10:35:11.135Z,101399.21
2024-02-02T10:37:35.802Z,101398.98
2024-02-02T10:40:12.209Z,101394.63
2024-02-02T10:42:44.129Z,101400.63
2024-02-02T10:45:05.504Z,101392.70
2024-02-02T10:47:43.851Z,101387.84
2024-02-02T10:50:20.871Z,101393.28
2024-02-02T10:52:37.481Z,101384.11
2024-02-02T10:55:05.849Z,101383.27
2024-02-02T10:57:20.724Z,101379.92
2024-02-02T11:00:02.431Z,101369.02
2024-02-02T11:02:59.263Z,101365.02
2024-02-02T11:05:39.726Z,101361.34
2024-02-02T11:08:13.111Z,101363.36
2024-02-02T11:10:45.526Z,101360.29
2024-02-02T11:13:16.930Z,101353.13
2024-02-02T11:16:00.063Z,101347.40
2024-02-02T11:18:38.399Z,101347.02
2024-02-02T11:21:17.564Z,101340.42
2024-02-02T11:23:39.724Z,101336.14
2024-02-02T11:26:03.910Z,101328.59
2024-02-02T11:28:29.412Z,101325.35
2024-02-02T11:30:48.182Z,101327.09
2024-02-02T11:33:09.513Z,101332.04
2024-02-02T11:35:48.874Z,101322.29
2024-02-02T11:38:05.942Z,101316.29
2024-02-02T11:40:21.857Z,101315.40
2024-02-02T11:42:37.295Z,101316.44
2024-02-02T11:44:50.889Z,101307.77
2024-02-02T11:47:06.606Z,101296.70
2024-02-02T11:49:28.874Z,101294.06
2024-02-02T11:51:53.496Z,101293.77
2024-02-02T11:54:19.881Z,101290.27
2024-02-02T11:56:39.632Z,101291.61
2024-02-02T11:59:00.146Z,101288.14
2024-02-02T12:01:30.023Z,101282.25
2024-02-02T12:04:07.348Z,101279.08
2024-02-02T12:06:20.825Z,101282.59
2024-02-02T12:08:39.815Z,101276.33
2024-02-02T12:10:53.158Z,101279.03
2024-02-02T12:13:07.835Z,101275.02
2024-02-02T12:15:20.905Z,101263.61
2024-02-02T12:17:33.749Z,101263.77
2024-02-02T12:19:46.545Z,101261.30
2024-02-02T12:21:59.080Z,101252.41
2024-02-02T12:24:12.545Z,101245.52
2024-02-02T12:26:25.619Z,101238.25
2024-02-02T12:28:38.240Z,101231.94
2024-02-02T12:30:50.430Z,101223.63
2024-02-02T12:33:05.630Z,101214.40
2024-02-02T12:35:18.042Z,101210.67
2024-02-02T12:37:29.911Z,101204.10
2024-02-02T12:39:42.530Z,101197.04
2024-02-02T12:41:57.539Z,101200.45
2024-02-02T12:44:09.283Z,101199.43
2024-02-02T12:46:22.486Z,101197.23
2024-02-02T12:48:35.056Z,101197.58
2024-02-02T12:50:53.246Z,101195.22
2024-02-02T12:53:05.955Z,101190.35
2024-02-02T12:55:19.868Z,101186.40
2024-02-02T12:57:32.098Z,101182.89
2024-02-02T12:59:44.501Z,101185.08
2024-02-02T13:01:56.386Z,101175.97
2024-02-02T13:04:09.841Z,101171.98
2024-02-02T13:06:21.923Z,101166.06
2024-02-02T13:08:38.870Z,101164.33
2024-02-02T13:10:51.562Z,101164.86
2024-02-02T13:13:12.285Z,101159.03
2024-02-02T13:15:24.350Z,101151.36
2024-02-02T13:17:38.696Z,101147.04
2024-02-02T13:19:59.202Z,101139.00
2024-02-02T13:22:30.319Z,101145.82
2024-02-02T13:24:50.290Z,101127.42
2024-02-02T13:27:06.769Z,101113.98
2024-02-02T13:29:28.418Z,101100.43
2024-02-02T13:31:42.064Z,101086.96
2024-02-02T13:33:57.277Z,101083.52
2024-02-02T13:36:10.996Z,101083.08
2024-02-02T13:38:24.284Z,101088.27
2024-02-02T13:40:36.885Z,101083.83
2024-02-02T13:42:51.441Z,101084.27
2024-02-02T13:45:21.150Z,101099.34
2024-02-02T13:47:34.846Z,101113.72
2024-02-02T13:49:57.199Z,101116.96
2024-02-02T13:52:09.331Z,101101.17
2024-02-02T13:54:23.244Z,101092.35
2024-02-02T13:56:35.594Z,101095.02
2024-02-02T13:58:47.771Z,101089.21
2024-02-02T14:00:59.735Z,101085.62
2024-02-02T14:03:13.190Z,101082.02
2024-02-02T14:05:26.309Z,101082.54
2024-02-02T14:07:38.288Z,101087.60
2024-02-02T14:10:04.659Z,101087.29
2024-02-02T14:12:17.082Z,101076.35
2024-02-02T14:14:32.205Z,101073.88
2024-02-02T14:16:44.204Z,101070.70
2024-02-02T14:19:06.951Z,101067.25
2024-02-02T14:21:18.925Z,101067.66
2024-02-02T14:23:32.585Z,101062.09
2024-02-02T14:25:44.582Z,101052.59
2024-02-02T14:27:56.464Z,101043.23
2024-02-02T14:30:09.562Z,101039.46
2024-02-02T14:32:21.895Z,101045.74
2024-02-02T14:34:34.540Z,101037.80
2024-02-02T14:36:46.945Z,101033.59
2024-02-02T14:39:27.742Z,101030.86
2024-02-02T14:41:40.080Z,101023.47
2024-02-02T14:43:52.593Z,101020.88
2024-02-02T14:46:08.672Z,101010.24
2024-02-02T14:48:22.786Z,101017.63
2024-02-02T14:50:36.784Z,101012.60
2024-02-02T14:52:48.765Z,101008.86
2024-02-02T14:55:00.951Z,101007.41
2024-02-02T14:57:18.124Z,101002.36
2024-02-02T14:59:31.060Z,100995.77
2024-02-02T15:01:43.803Z,100988.36
2024-02-02T15:03:55.718Z,100995.44
2024-02-02T15:06:08.919Z,100991.36
2024-02-02T15:08:21.726Z,100985.19
2024-02-02T15:10:34.174Z,100980.03
2024-02-02T15:12:47.564Z,100970.55
2024-02-02T15:14:59.974Z,100976.52
2024-02-02T15:17:12.171Z,100974.19
2024-02-02T15:19:24.277Z,100971.16
2024-02-02T15:21:37.002Z,100972.40
2024-02-02T15:23:49.074Z,100963.50
2024-02-02T15:26:00.968Z,100954.44
2024-02-02T15:28:12.852Z,100955.04
2024-02-02T15:30:24.563Z,100955.04
2024-02-02T15:32:37.790Z,100952.65
2024-02-02T15:34:50.357Z,100943.77
2024-02-02T15:37:03.390Z,100938.86
2024-02-02T15:39:26.443Z,100937.77
2024-02-02T15:41:43.865Z,100935.23
2024-02-02T15:43:57.645Z,100937.16
2024-02-02T15:46:10.014Z,100933.02
2024-02-02T15:48:22.779Z,100936.23
2024-02-02T15:50:35.147Z,100930.05
2024-02-02T15:52:47.116Z,100917.98
2024-02-02T15:55:00.660Z,100929.40
2024-02-02T15:57:12.370Z,100923.11
2024-02-02T15:59:25.247Z,100914.09
2024-02-02T16:01:37.451Z,100905.91
2024-02-02T16:03:49.652Z,100905.20
2024-02-02T16:06:04.662Z,100909.98
2024-02-02T16:08:17.847Z,100906.58
2024-02-02T16:10:31.032Z,100900.44
2024-02-02T16:12:52.838Z,100894.12
2024-02-02T16:15:06.757Z,100887.17
2024-02-02T16:17:18.663Z,100886.07
2024-02-02T16:19:31.423Z,100878.67
2024-02-02T16:21:43.717Z,100874.64
2024-02-02T16:23:55.737Z,100867.98
2024-02-02T16:26:08.849Z,100861.98
2024-02-02T16:28:21.253Z,100855.52
2024-02-02T16:30:33.138Z,100849.14
2024-02-02T16:32:45.378Z,100844.56
2024-02-02T16:34:57.716Z,100840.43
2024-02-02T16:37:10.054Z,100839.95
2024-02-02T16:39:21.929Z,100837.34
2024-02-02T16:41:34.455Z,100833.88
2024-02-02T16:43:47.677Z,100826.31
2024-02-02T16:45:59.365Z,100817.61
2024-02-02T16:48:11.448Z,100818.15
2024-02-02T16:50:23.464Z,100817.64
2024-02-02T16:52:35.100Z,100818.11
2024-02-02T16:54:48.843Z,100812.57
2024-02-02T16:57:05.540Z,100802.15
2024-02-02T16:59:17.481Z,100799.52
2024-02-02T17:01:34.340Z,100798.66
2024-02-02T17:03:46.884Z,100791.16
2024-02-02T17:05:58.702Z,100783.92
2024-02-02T17:08:12.018Z,100775.08
2024-02-02T17:10:24.008Z,100763.30
2024-02-02T17:12:37.480Z,100764.45
2024-02-02T17:14:49.379Z,100766.60
2024-02-02T17:17:03.266Z,100770.71
2024-02-02T17:19:17.324Z,100764.98
2024-02-02T17:21:29.630Z,100757.38
2024-02-02T17:23:41.814Z,100753.48
2024-02-02T17:25:53.703Z,100751.80
2024-02-02T17:28:05.836Z,100746.90
2024-02-02T17:30:22.303Z,100755.34
2024-02-02T17:32:39.866Z,100750.31
2024-02-02T17:34:52.564Z,100748.56
2024-02-02T17:37:04.739Z,100745.59
2024-02-02T17:39:17.014Z,100752.73
2024-02-02T17:41:28.968Z,100747.81
2024-02-02T17:43:42.565Z,100746.60
2024-02-02T17:45:54.845Z,100741.27
2024-02-02T17:48:07.243Z,100726.09
2024-02-02T17:50:19.348Z,100719.91
2024-02-02T17:52:31.261Z,100727.29
2024-02-02T17:54:43.267Z,100720.80
2024-02-02T17:56:56.477Z,100708.59
2024-02-02T17:59:08.516Z,100706.11
2024-02-02T18:01:20.274Z,100710.20
2024-02-02T18:03:33.359Z,100704.45
2024-02-02T18:05:45.318Z,100702.33
2024-02-02T18:07:57.240Z,100707.54
2024-02-02T18:10:11.616Z,100700.11
2024-02-02T18:12:23.274Z,100705.14
2024-02-02T18:14:35.304Z,100705.39
2024-02-02T18:16:47.617Z,100707.06
2024-02-02T18:18:59.847Z,100704.96
2024-02-02T18:21:12.311Z,100696.69
2024-02-02T18:23:26.147Z,100691.82
2024-02-02T18:25:37.754Z,100689.15
2024-02-02T18:27:50.045Z,100686.38
2024-02-02T18:30:02.114Z,100683.90
2024-02-02T18:32:13.921Z,100681.63
2024-02-02T18:34:26.039Z,100677.00
2024-02-02T18:36:43.435Z,100681.96
2024-02-02T18:38:56.116Z,100685.53
2024-02-02T18:41:09.788Z,100687.05
2024-02-02T18:43:21.776Z,100682.00
2024-02-02T18:45:33.474Z,100673.52
2024-02-02T18:47:45.281Z,100666.53
2024-02-02T18:49:57.659Z,100655.48
2024-02-02T18:52:09.754Z,100644.35
2024-02-02T18:54:21.900Z,100647.27
2024-02-02T18:56:34.119Z,100646.02
2024-02-02T18:58:46.985Z,100650.45
2024-02-02T19:00:59.006Z,100653.55
2024-02-02T19:03:13.069Z,100653.11
2024-02-02T19:05:24.903Z,100648.88
2024-02-02T19:07:38.009Z,100647.04
2024-02-02T19:09:49.921Z,100645.70
2024-02-02T19:12:02.577Z,100647.64
2024-02-02T19:14:14.929Z,100643.43
2024-02-02T19:16:27.024Z,100634.70
2024-02-02T19:18:40.428Z,100635.16
2024-02-02T19:20:52.550Z,100631.05
2024-02-02T19:23:04.776Z,100635.86
2024-02-02T19:25:17.360Z,100629.20
2024-02-02T19:27:33.047Z,100620.05
2024-02-02T19:29:48.415Z,100613.50
2024-02-02T19:32:00.938Z,100615.46
2024-02-02T19:34:13.116Z,100612.38
2024-02-02T19:36:28.509Z,100614.25
2024-02-02T19:38:42.586Z,100611.32
2024-02-02T19:40:55.678Z,100606.77
2024-02-02T19:43:08.369Z,100605.27
2024-02-02T19:45:20.853Z,100599.06
2024-02-02T19:47:33.616Z,100598.42
2024-02-02T19:49:46.199Z,100597.33
2024-02-02T19:51:58.918Z,100603.07
2024-02-02T19:54:12.485Z,100610.56
2024-02-02T19:56:25.152Z,100609.11
2024-02-02T19:58:44.820Z,100605.15
2024-02-02T20:00:56.458Z,100602.04
2024-02-02T20:03:08.679Z,100596.45
2024-02-02T20:05:24.165Z,100591.84
2024-02-02T20:07:37.375Z,100587.99
2024-02-02T20:09:50.754Z,100589.80
2024-02-02T20:12:02.914Z,100576.67
2024-02-02T20:14:14.831Z,100567.39
2024-02-02T20:16:26.826Z,100560.79
2024-02-02T20:18:39.211Z,100578.20
2024-02-02T20:20:55.011Z,100564.20
2024-02-02T20:23:06.608Z,100534.85
2024-02-02T20:25:18.697Z,100558.91
2024-02-02T20:27:30.904Z,100558.39
2024-02-02T20:29:43.417Z,100559.21
2024-02-02T20:31:55.640Z,100544.90
2024-02-02T20:34:08.880Z,100541.20
2024-02-02T20:36:24.546Z,100550.98
2024-02-02T20:38:39.272Z,100545.02
2024-02-02T20:40:53.325Z,100540.27
2024-02-02T20:43:06.643Z,100546.64
2024-02-02T20:45:22.573Z,100545.67
2024-02-02T20:47:34.448Z,100538.81
2024-02-02T20:49:47.836Z,100536.09
2024-02-02T20:52:01.029Z,100532.86
2024-02-02T20:54:14.823Z,100535.14
2024-02-02T20:56:27.538Z,100530.45
2024-02-02T20:58:42.016Z,100523.21
2024-02-02T21:00:55.556Z,100526.52
2024-02-02T21:03:12.385Z,100526.62
2024-02-02T21:05:25.810Z,100516.02
2024-02-02T21:07:38.730Z,100519.01
2024-02-02T21:09:51.637Z,100517.52
2024-02-02T21:12:13.189Z,100512.45
2024-02-02T21:14:55.345Z,100500.45
2024-02-02T21:17:12.812Z,100500.39
2024-02-02T21:19:29.233Z,100498.14
2024-02-02T21:21:43.078Z,100493.10
2024-02-02T21:23:58.112Z,100496.79
2024-02-02T21:26:10.616Z,100486.63
2024-02-02T21:28:23.294Z,100480.75
2024-02-02T21:30:37.213Z,100493.86
2024-02-02T21:32:51.944Z,100495.28
2024-02-02T21:35:05.372Z,100485.10
2024-02-02T21:37:19.349Z,100486.08
2024-02-02T21:39:31.901Z,100494.17
2024-02-02T21:41:44.065Z,100490.38
2024-02-02T21:43:57.122Z,100486.23
2024-02-02T21:46:08.810Z,100478.46
2024-02-02T21:48:21.082Z,100476.77
2024-02-02T21:50:33.112Z,100480.48
2024-02-02T21:52:47.570Z,100483.65
2024-02-02T21:54:59.680Z,100481.78
2024-02-02T21:57:12.618Z,100471.38
2024-02-02T21:59:25.288Z,100461.89
2024-02-02T22:01:38.877Z,100455.41
2024-02-02T22:03:51.642Z,100457.82
2024-02-02T22:06:10.145Z,100461.20
2024-02-02T22:08:25.709Z,100464.01
2024-02-02T22:10:38.572Z,100453.08
2024-02-02T22:12:51.015Z,100455.58
2024-02-02T22:15:03.018Z,100454.96
2024-02-02T22:17:16.416Z,100456.60
2024-02-02T22:19:28.375Z,100447.27
2024-02-02T22:21:40.151Z,100443.72
2024-02-02T22:23:52.279Z,100444.14
2024-02-02T22:26:04.795Z,100441.15
2024-02-02T22:28:19.312Z,100437.34
2024-02-02T22:30:33.679Z,100433.19
2024-02-02T22:32:45.343Z,100436.42
2024-02-02T22:34:57.330Z,100431.41
2024-02-02T22:37:09.302Z,100433.11
2024-02-02T22:39:20.906Z,100431.42
2024-02-02T22:41:34.554Z,100433.74
2024-02-02T22:43:48.179Z,100439.70
2024-02-02T22:45:59.727Z,100437.36
2024-02-02T22:48:11.480Z,100437.92
2024-02-02T22:50:23.588Z,100438.40
2024-02-02T22:52:35.380Z,100441.56
2024-02-02T22:54:47.291Z,100440.69
2024-02-02T22:57:00.877Z,100444.01
2024-02-02T22:59:14.450Z,100438.46
2024-02-02T23:01:27.579Z,100441.53
2024-02-02T23:03:39.829Z,100442.36
2024-02-02T23:05:51.616Z,100441.13
2024-02-02T23:08:03.963Z,100437.02
2024-02-02T23:10:16.059Z,100433.59
2024-02-02T23:12:27.665Z,100431.62
2024-02-02T23:14:40.966Z,100424.88
2024-02-02T23:16:53.008Z,100425.13
2024-02-02T23:19:05.493Z,100419.31
2024-02-02T23:21:17.675Z,100414.44
2024-02-02T23:23:34.522Z,100413.48
2024-02-02T23:25:46.911Z,100413.13
2024-02-02T23:27:58.796Z,100416.36
2024-02-02T23:30:14.297Z,100410.47
2024-02-02T23:32:26.188Z,100409.35
2024-02-02T23:34:37.981Z,100409.41
2024-02-02T23:36:50.447Z,100411.61
2024-02-02T23:39:03.554Z,100409.89
2024-02-02T23:41:17.032Z,100409.05
2024-02-02T23:43:29.180Z,100403.34
2024-02-02T23:45:40.930Z,100401.23
2024-02-02T23:47:53.185Z,100394.34
2024-02-02T23:50:05.944Z,100386.00
2024-02-02T23:52:17.927Z,100382.77
2024-02-02T23:54:30.203Z,100367.91
2024-02-02T23:56:41.974Z,100373.41
2024-02-02T23:58:53.554Z,100368.18
